sensor_id;sensor_type;location;lat;lon;timestamp;temperature;humidity
8888;DHT22;4480;52.370;9.748;2022-09-01T00:00:45;14.50;90.30
8888;DHT22;4480;52.370;9.748;2022-09-01T00:03:14;14.50;90.50
8888;DHT22;4480;52.370;9.748;2022-09-01T00:05:42;14.50;90.80
8888;DHT22;4480;52.370;9.748;2022-09-01T00:08:12;14.40;90.90
8888;DHT22;4480;52.370;9.748;2022-09-01T00:10:39;14.40;91.20
8888;DHT22;4480;52.370;9.748;2022-09-01T00:13:07;14.40;91.30
8888;DHT22;4480;52.370;9.748;2022-09-01T00:15:34;14.40;91.50
8888;DHT22;4480;52.370;9.748;2022-09-01T00:18:02;14.30;91.70
8888;DHT22;4480;52.370;9.748;2022-09-01T00:20:30;14.30;91.90
8888;DHT22;4480;52.370;9.748;2022-09-01T00:22:57;14.30;92.10
8888;DHT22;4480;52.370;9.748;2022-09-01T00:25:27;14.30;92.20
8888;DHT22;4480;52.370;9.748;2022-09-01T00:27:55;14.20;92.40
8888;DHT22;4480;52.370;9.748;2022-09-01T00:30:25;14.20;92.60
8888;DHT22;4480;52.370;9.748;2022-09-01T00:32:53;14.20;92.80
8888;DHT22;4480;52.370;9.748;2022-09-01T00:35:20;14.10;93.00
8888;DHT22;4480;52.370;9.748;2022-09-01T00:37:47;14.10;93.20
8888;DHT22;4480;52.370;9.748;2022-09-01T00:40:16;14.10;93.30
8888;DHT22;4480;52.370;9.748;2022-09-01T00:42:46;14.00;93.50
8888;DHT22;4480;52.370;9.748;2022-09-01T00:45:14;14.00;93.70
8888;DHT22;4480;52.370;9.748;2022-09-01T00:47:41;14.00;93.80
8888;DHT22;4480;52.370;9.748;2022-09-01T00:50:09;14.00;93.90
8888;DHT22;4480;52.370;9.748;2022-09-01T00:52:42;13.90;94.00
8888;DHT22;4480;52.370;9.748;2022-09-01T00:55:14;13.90;94.30
8888;DHT22;4480;52.370;9.748;2022-09-01T00:57:42;13.90;94.30
8888;DHT22;4480;52.370;9.748;2022-09-01T01:00:14;13.90;94.40
8888;DHT22;4480;52.370;9.748;2022-09-01T01:05:16;13.80;94.70
8888;DHT22;4480;52.370;9.748;2022-09-01T01:07:44;13.80;94.80
8888;DHT22;4480;52.370;9.748;2022-09-01T01:10:12;13.80;95.00
8888;DHT22;4480;52.370;9.748;2022-09-01T01:12:40;13.70;95.10
8888;DHT22;4480;52.370;9.748;2022-09-01T01:15:11;13.70;95.30
8888;DHT22;4480;52.370;9.748;2022-09-01T01:17:39;13.60;95.50
8888;DHT22;4480;52.370;9.748;2022-09-01T01:20:07;13.60;95.70
8888;DHT22;4480;52.370;9.748;2022-09-01T01:22:59;13.50;95.90
8888;DHT22;4480;52.370;9.748;2022-09-01T01:25:36;13.50;96.00
8888;DHT22;4480;52.370;9.748;2022-09-01T01:28:07;13.50;96.20
8888;DHT22;4480;52.370;9.748;2022-09-01T01:30:35;13.40;96.30
8888;DHT22;4480;52.370;9.748;2022-09-01T01:33:05;13.40;96.50
8888;DHT22;4480;52.370;9.748;2022-09-01T01:35:33;13.40;96.60
8888;DHT22;4480;52.370;9.748;2022-09-01T01:38:02;13.30;96.70
8888;DHT22;4480;52.370;9.748;2022-09-01T01:40:34;13.30;96.90
8888;DHT22;4480;52.370;9.748;2022-09-01T01:43:02;13.30;96.90
8888;DHT22;4480;52.370;9.748;2022-09-01T01:45:31;13.20;97.00
8888;DHT22;4480;52.370;9.748;2022-09-01T01:47:58;13.20;97.20
8888;DHT22;4480;52.370;9.748;2022-09-01T01:50:33;13.20;97.40
8888;DHT22;4480;52.370;9.748;2022-09-01T01:53:03;13.10;97.60
8888;DHT22;4480;52.370;9.748;2022-09-01T01:55:30;13.10;97.70
8888;DHT22;4480;52.370;9.748;2022-09-01T01:58:00;13.10;97.80
8888;DHT22;4480;52.370;9.748;2022-09-01T02:00:29;13.10;97.90
8888;DHT22;4480;52.370;9.748;2022-09-01T02:02:59;13.10;98.00
8888;DHT22;4480;52.370;9.748;2022-09-01T02:05:29;13.00;98.10
8888;DHT22;4480;52.370;9.748;2022-09-01T02:08:00;13.00;98.20
8888;DHT22;4480;52.370;9.748;2022-09-01T02:10:32;13.00;98.30
8888;DHT22;4480;52.370;9.748;2022-09-01T02:13:03;12.90;98.40
8888;DHT22;4480;52.370;9.748;2022-09-01T02:15:33;12.90;98.60
8888;DHT22;4480;52.370;9.748;2022-09-01T02:18:04;12.90;98.80
8888;DHT22;4480;52.370;9.748;2022-09-01T02:20:31;12.90;98.90
8888;DHT22;4480;52.370;9.748;2022-09-01T02:22:59;12.90;98.90
8888;DHT22;4480;52.370;9.748;2022-09-01T02:25:29;12.90;99.00
8888;DHT22;4480;52.370;9.748;2022-09-01T02:27:56;12.90;99.20
8888;DHT22;4480;52.370;9.748;2022-09-01T02:30:29;12.90;99.20
8888;DHT22;4480;52.370;9.748;2022-09-01T02:32:58;12.80;99.30
8888;DHT22;4480;52.370;9.748;2022-09-01T02:35:25;12.80;99.40
8888;DHT22;4480;52.370;9.748;2022-09-01T02:37:56;12.70;99.50
8888;DHT22;4480;52.370;9.748;2022-09-01T02:40:25;12.70;99.70
8888;DHT22;4480;52.370;9.748;2022-09-01T02:42:55;12.70;99.90
8888;DHT22;4480;52.370;9.748;2022-09-01T04:55:16;11.90;99.90
8888;DHT22;4480;52.370;9.748;2022-09-01T04:57:46;12.30;99.90
8888;DHT22;4480;52.370;9.748;2022-09-01T05:00:15;12.40;99.90
8888;DHT22;4480;52.370;9.748;2022-09-01T05:02:50;12.50;99.90
8888;DHT22;4480;52.370;9.748;2022-09-01T05:05:19;12.60;99.90
8888;DHT22;4480;52.370;9.748;2022-09-01T05:07:47;12.80;99.90
8888;DHT22;4480;52.370;9.748;2022-09-01T05:10:18;12.80;99.90
8888;DHT22;4480;52.370;9.748;2022-09-01T05:12:47;12.90;99.90
8888;DHT22;4480;52.370;9.748;2022-09-01T05:15:16;13.00;99.90
8888;DHT22;4480;52.370;9.748;2022-09-01T05:17:45;13.10;99.90
8888;DHT22;4480;52.370;9.748;2022-09-01T05:20:14;13.10;99.90
8888;DHT22;4480;52.370;9.748;2022-09-01T05:22:41;13.10;99.90
8888;DHT22;4480;52.370;9.748;2022-09-01T05:25:09;13.10;99.90
8888;DHT22;4480;52.370;9.748;2022-09-01T05:27:41;13.00;99.90
8888;DHT22;4480;52.370;9.748;2022-09-01T05:30:16;13.00;99.90
8888;DHT22;4480;52.370;9.748;2022-09-01T05:32:44;12.90;99.90
8888;DHT22;4480;52.370;9.748;2022-09-01T05:35:13;12.90;99.90
8888;DHT22;4480;52.370;9.748;2022-09-01T05:37:40;12.80;99.90
8888;DHT22;4480;52.370;9.748;2022-09-01T05:40:09;12.80;99.90
8888;DHT22;4480;52.370;9.748;2022-09-01T05:42:41;12.80;99.90
8888;DHT22;4480;52.370;9.748;2022-09-01T05:45:09;12.70;99.90
8888;DHT22;4480;52.370;9.748;2022-09-01T05:47:40;12.80;99.90
8888;DHT22;4480;52.370;9.748;2022-09-01T05:50:08;12.80;99.90
8888;DHT22;4480;52.370;9.748;2022-09-01T05:52:37;12.90;99.90
8888;DHT22;4480;52.370;9.748;2022-09-01T05:55:06;12.90;99.90
8888;DHT22;4480;52.370;9.748;2022-09-01T05:57:34;13.00;99.90
8888;DHT22;4480;52.370;9.748;2022-09-01T06:00:08;13.10;99.90
8888;DHT22;4480;52.370;9.748;2022-09-01T06:02:39;13.10;99.90
8888;DHT22;4480;52.370;9.748;2022-09-01T06:05:08;13.20;99.90
8888;DHT22;4480;52.370;9.748;2022-09-01T06:07:36;13.30;99.90
8888;DHT22;4480;52.370;9.748;2022-09-01T06:10:06;13.40;99.90
8888;DHT22;4480;52.370;9.748;2022-09-01T06:12:33;13.50;99.90
8888;DHT22;4480;52.370;9.748;2022-09-01T06:15:01;13.60;99.90
8888;DHT22;4480;52.370;9.748;2022-09-01T06:17:28;13.60;99.90
8888;DHT22;4480;52.370;9.748;2022-09-01T06:19:58;13.70;99.90
8888;DHT22;4480;52.370;9.748;2022-09-01T06:22:26;13.80;99.90
8888;DHT22;4480;52.370;9.748;2022-09-01T06:24:54;13.90;99.90
8888;DHT22;4480;52.370;9.748;2022-09-01T06:27:24;13.90;99.90
8888;DHT22;4480;52.370;9.748;2022-09-01T06:29:51;14.00;99.90
8888;DHT22;4480;52.370;9.748;2022-09-01T06:32:21;14.10;99.90
8888;DHT22;4480;52.370;9.748;2022-09-01T06:34:50;14.20;99.90
8888;DHT22;4480;52.370;9.748;2022-09-01T06:37:19;14.30;99.90
8888;DHT22;4480;52.370;9.748;2022-09-01T06:39:47;14.40;99.90
8888;DHT22;4480;52.370;9.748;2022-09-01T06:42:16;14.50;99.90
8888;DHT22;4480;52.370;9.748;2022-09-01T06:44:44;14.60;99.90
8888;DHT22;4480;52.370;9.748;2022-09-01T06:47:12;14.80;99.90
8888;DHT22;4480;52.370;9.748;2022-09-01T06:49:40;14.90;99.90
8888;DHT22;4480;52.370;9.748;2022-09-01T06:52:07;14.90;99.90
8888;DHT22;4480;52.370;9.748;2022-09-01T06:54:37;15.00;99.90
8888;DHT22;4480;52.370;9.748;2022-09-01T06:57:08;15.00;99.90
8888;DHT22;4480;52.370;9.748;2022-09-01T06:59:35;15.10;99.90
8888;DHT22;4480;52.370;9.748;2022-09-01T07:02:02;15.20;99.80
8888;DHT22;4480;52.370;9.748;2022-09-01T07:04:31;15.40;99.50
8888;DHT22;4480;52.370;9.748;2022-09-01T07:06:59;15.50;99.10
8888;DHT22;4480;52.370;9.748;2022-09-01T07:09:29;15.70;98.80
8888;DHT22;4480;52.370;9.748;2022-09-01T07:11:58;15.70;98.20
8888;DHT22;4480;52.370;9.748;2022-09-01T07:14:28;15.80;97.90
8888;DHT22;4480;52.370;9.748;2022-09-01T07:16:56;16.00;97.40
8888;DHT22;4480;52.370;9.748;2022-09-01T07:19:24;16.00;97.20
8888;DHT22;4480;52.370;9.748;2022-09-01T07:21:52;16.20;96.60
8888;DHT22;4480;52.370;9.748;2022-09-01T07:24:20;16.30;96.10
8888;DHT22;4480;52.370;9.748;2022-09-01T07:26:48;16.40;95.40
8888;DHT22;4480;52.370;9.748;2022-09-01T07:29:18;16.40;94.90
8888;DHT22;4480;52.370;9.748;2022-09-01T07:31:47;16.50;94.50
8888;DHT22;4480;52.370;9.748;2022-09-01T07:34:15;16.60;93.90
8888;DHT22;4480;52.370;9.748;2022-09-01T07:36:43;16.70;93.50
8888;DHT22;4480;52.370;9.748;2022-09-01T07:39:11;16.80;93.00
8888;DHT22;4480;52.370;9.748;2022-09-01T07:41:40;16.80;92.30
8888;DHT22;4480;52.370;9.748;2022-09-01T07:44:09;16.90;91.60
8888;DHT22;4480;52.370;9.748;2022-09-01T07:46:40;17.00;91.10
8888;DHT22;4480;52.370;9.748;2022-09-01T07:49:09;17.10;90.40
8888;DHT22;4480;52.370;9.748;2022-09-01T07:51:36;17.30;89.70
8888;DHT22;4480;52.370;9.748;2022-09-01T07:54:04;17.40;88.00
8888;DHT22;4480;52.370;9.748;2022-09-01T07:56:31;17.50;86.30
8888;DHT22;4480;52.370;9.748;2022-09-01T07:58:59;17.60;83.50
8888;DHT22;4480;52.370;9.748;2022-09-01T08:01:27;17.60;81.20
8888;DHT22;4480;52.370;9.748;2022-09-01T08:03:57;17.70;79.60
8888;DHT22;4480;52.370;9.748;2022-09-01T08:06:28;17.80;77.90
8888;DHT22;4480;52.370;9.748;2022-09-01T08:08:58;17.90;77.30
8888;DHT22;4480;52.370;9.748;2022-09-01T08:11:28;18.00;75.30
8888;DHT22;4480;52.370;9.748;2022-09-01T08:13:57;18.10;73.50
8888;DHT22;4480;52.370;9.748;2022-09-01T08:16:25;18.20;71.80
8888;DHT22;4480;52.370;9.748;2022-09-01T08:18:54;18.30;70.20
8888;DHT22;4480;52.370;9.748;2022-09-01T08:21:22;18.50;68.40
8888;DHT22;4480;52.370;9.748;2022-09-01T08:23:52;18.60;66.20
8888;DHT22;4480;52.370;9.748;2022-09-01T08:26:21;18.60;64.30
8888;DHT22;4480;52.370;9.748;2022-09-01T08:28:48;18.70;61.60
8888;DHT22;4480;52.370;9.748;2022-09-01T08:31:18;18.80;60.50
8888;DHT22;4480;52.370;9.748;2022-09-01T08:33:51;19.00;57.30
8888;DHT22;4480;52.370;9.748;2022-09-01T08:36:21;19.00;56.60
8888;DHT22;4480;52.370;9.748;2022-09-01T08:38:48;19.00;55.70
8888;DHT22;4480;52.370;9.748;2022-09-01T08:41:22;19.10;54.80
8888;DHT22;4480;52.370;9.748;2022-09-01T08:44:01;19.20;54.00
8888;DHT22;4480;52.370;9.748;2022-09-01T08:46:38;19.20;53.20
8888;DHT22;4480;52.370;9.748;2022-09-01T08:49:11;19.30;52.80
8888;DHT22;4480;52.370;9.748;2022-09-01T08:51:45;19.30;52.10
8888;DHT22;4480;52.370;9.748;2022-09-01T08:54:20;19.40;51.70
8888;DHT22;4480;52.370;9.748;2022-09-01T08:56:51;19.50;51.60
8888;DHT22;4480;52.370;9.748;2022-09-01T08:59:19;19.60;51.00
8888;DHT22;4480;52.370;9.748;2022-09-01T09:01:54;19.70;50.80
8888;DHT22;4480;52.370;9.748;2022-09-01T09:04:35;19.80;50.50
8888;DHT22;4480;52.370;9.748;2022-09-01T09:07:11;20.00;50.20
8888;DHT22;4480;52.370;9.748;2022-09-01T09:09:47;20.00;49.70
8888;DHT22;4480;52.370;9.748;2022-09-01T09:12:31;20.00;49.70
8888;DHT22;4480;52.370;9.748;2022-09-01T09:15:10;20.10;49.70
8888;DHT22;4480;52.370;9.748;2022-09-01T09:17:43;20.20;49.80
8888;DHT22;4480;52.370;9.748;2022-09-01T09:20:12;20.30;49.70
8888;DHT22;4480;52.370;9.748;2022-09-01T09:22:42;20.40;49.60
8888;DHT22;4480;52.370;9.748;2022-09-01T09:25:12;20.70;49.60
8888;DHT22;4480;52.370;9.748;2022-09-01T09:27:42;20.70;48.90
8888;DHT22;4480;52.370;9.748;2022-09-01T09:30:12;20.80;48.60
8888;DHT22;4480;52.370;9.748;2022-09-01T09:32:48;20.80;48.70
8888;DHT22;4480;52.370;9.748;2022-09-01T09:35:21;20.90;48.90
8888;DHT22;4480;52.370;9.748;2022-09-01T09:37:50;21.00;48.70
8888;DHT22;4480;52.370;9.748;2022-09-01T09:40:19;21.00;48.50
8888;DHT22;4480;52.370;9.748;2022-09-01T09:43:05;21.00;48.30
8888;DHT22;4480;52.370;9.748;2022-09-01T09:45:35;21.00;48.20
8888;DHT22;4480;52.370;9.748;2022-09-01T09:48:08;21.00;48.30
8888;DHT22;4480;52.370;9.748;2022-09-01T09:50:37;21.10;48.10
8888;DHT22;4480;52.370;9.748;2022-09-01T09:53:17;21.10;47.70
8888;DHT22;4480;52.370;9.748;2022-09-01T09:55:58;21.20;47.10
8888;DHT22;4480;52.370;9.748;2022-09-01T09:58:33;21.20;46.40
8888;DHT22;4480;52.370;9.748;2022-09-01T10:01:07;21.30;46.00
8888;DHT22;4480;52.370;9.748;2022-09-01T10:03:46;21.30;45.70
8888;DHT22;4480;52.370;9.748;2022-09-01T10:06:30;21.40;45.20
8888;DHT22;4480;52.370;9.748;2022-09-01T10:09:00;21.50;45.40
8888;DHT22;4480;52.370;9.748;2022-09-01T10:11:32;21.60;44.60
8888;DHT22;4480;52.370;9.748;2022-09-01T10:14:05;21.60;44.00
8888;DHT22;4480;52.370;9.748;2022-09-01T10:16:36;21.60;43.70
8888;DHT22;4480;52.370;9.748;2022-09-01T10:19:06;21.60;43.80
8888;DHT22;4480;52.370;9.748;2022-09-01T10:21:38;21.70;43.60
8888;DHT22;4480;52.370;9.748;2022-09-01T10:24:16;21.80;43.40
8888;DHT22;4480;52.370;9.748;2022-09-01T10:26:46;21.90;43.10
8888;DHT22;4480;52.370;9.748;2022-09-01T10:29:21;22.00;43.00
8888;DHT22;4480;52.370;9.748;2022-09-01T10:31:51;22.10;42.50
8888;DHT22;4480;52.370;9.748;2022-09-01T10:34:20;22.10;42.20
8888;DHT22;4480;52.370;9.748;2022-09-01T10:36:48;22.20;41.80
8888;DHT22;4480;52.370;9.748;2022-09-01T10:39:18;22.30;41.30
8888;DHT22;4480;52.370;9.748;2022-09-01T10:41:52;22.40;40.70
8888;DHT22;4480;52.370;9.748;2022-09-01T10:44:23;22.50;40.10
8888;DHT22;4480;52.370;9.748;2022-09-01T10:46:56;22.60;40.30
8888;DHT22;4480;52.370;9.748;2022-09-01T10:49:58;22.70;40.00
8888;DHT22;4480;52.370;9.748;2022-09-01T10:53:00;22.80;40.20
8888;DHT22;4480;52.370;9.748;2022-09-01T10:55:35;22.80;39.80
8888;DHT22;4480;52.370;9.748;2022-09-01T10:58:24;22.90;40.00
8888;DHT22;4480;52.370;9.748;2022-09-01T11:00:55;23.00;39.80
8888;DHT22;4480;52.370;9.748;2022-09-01T11:03:49;23.20;39.90
8888;DHT22;4480;52.370;9.748;2022-09-01T11:09:30;23.10;38.40
8888;DHT22;4480;52.370;9.748;2022-09-01T11:12:42;22.90;38.10
8888;DHT22;4480;52.370;9.748;2022-09-01T11:15:32;22.80;37.80
8888;DHT22;4480;52.370;9.748;2022-09-01T11:18:00;22.80;37.80
8888;DHT22;4480;52.370;9.748;2022-09-01T11:20:31;22.80;37.70
8888;DHT22;4480;52.370;9.748;2022-09-01T11:23:01;22.80;37.60
8888;DHT22;4480;52.370;9.748;2022-09-01T11:25:34;22.90;37.50
8888;DHT22;4480;52.370;9.748;2022-09-01T11:28:09;23.00;37.40
8888;DHT22;4480;52.370;9.748;2022-09-01T11:30:43;23.10;37.50
8888;DHT22;4480;52.370;9.748;2022-09-01T11:33:39;23.30;37.40
8888;DHT22;4480;52.370;9.748;2022-09-01T11:36:14;23.50;36.80
8888;DHT22;4480;52.370;9.748;2022-09-01T11:38:51;23.60;36.20
8888;DHT22;4480;52.370;9.748;2022-09-01T11:41:24;23.60;36.40
8888;DHT22;4480;52.370;9.748;2022-09-01T11:44:01;23.80;36.50
8888;DHT22;4480;52.370;9.748;2022-09-01T11:46:31;24.00;36.40
8888;DHT22;4480;52.370;9.748;2022-09-01T11:49:04;24.10;36.00
8888;DHT22;4480;52.370;9.748;2022-09-01T11:51:43;24.00;35.90
8888;DHT22;4480;52.370;9.748;2022-09-01T11:54:12;23.90;35.90
8888;DHT22;4480;52.370;9.748;2022-09-01T11:56:40;24.00;36.00
8888;DHT22;4480;52.370;9.748;2022-09-01T11:59:09;24.10;35.80
8888;DHT22;4480;52.370;9.748;2022-09-01T12:01:37;24.00;36.00
8888;DHT22;4480;52.370;9.748;2022-09-01T12:04:30;23.70;36.30
8888;DHT22;4480;52.370;9.748;2022-09-01T12:07:00;23.60;36.50
8888;DHT22;4480;52.370;9.748;2022-09-01T12:09:33;23.80;36.60
8888;DHT22;4480;52.370;9.748;2022-09-01T12:12:02;24.10;36.60
8888;DHT22;4480;52.370;9.748;2022-09-01T12:14:31;24.50;36.60
8888;DHT22;4480;52.370;9.748;2022-09-01T12:17:01;24.70;36.70
8888;DHT22;4480;52.370;9.748;2022-09-01T12:19:32;24.70;36.90
8888;DHT22;4480;52.370;9.748;2022-09-01T12:22:02;24.70;37.00
8888;DHT22;4480;52.370;9.748;2022-09-01T12:24:33;24.60;37.00
8888;DHT22;4480;52.370;9.748;2022-09-01T12:27:02;24.60;37.20
8888;DHT22;4480;52.370;9.748;2022-09-01T12:29:31;24.60;37.10
8888;DHT22;4480;52.370;9.748;2022-09-01T12:31:59;24.60;37.20
8888;DHT22;4480;52.370;9.748;2022-09-01T12:34:36;24.60;37.30
8888;DHT22;4480;52.370;9.748;2022-09-01T12:37:11;24.80;37.20
8888;DHT22;4480;52.370;9.748;2022-09-01T12:39:40;24.90;37.00
8888;DHT22;4480;52.370;9.748;2022-09-01T12:42:11;24.70;36.80
8888;DHT22;4480;52.370;9.748;2022-09-01T12:44:46;24.50;36.50
8888;DHT22;4480;52.370;9.748;2022-09-01T12:47:49;24.30;36.50
8888;DHT22;4480;52.370;9.748;2022-09-01T12:53:24;23.90;36.60
8888;DHT22;4480;52.370;9.748;2022-09-01T12:58:47;24.00;37.40
8888;DHT22;4480;52.370;9.748;2022-09-01T13:01:28;24.30;37.30
8888;DHT22;4480;52.370;9.748;2022-09-01T13:04:24;24.50;37.00
8888;DHT22;4480;52.370;9.748;2022-09-01T13:06:54;24.70;36.80
8888;DHT22;4480;52.370;9.748;2022-09-01T13:09:22;24.90;36.60
8888;DHT22;4480;52.370;9.748;2022-09-01T13:11:49;24.70;36.60
8888;DHT22;4480;52.370;9.748;2022-09-01T13:14:16;24.50;36.80
8888;DHT22;4480;52.370;9.748;2022-09-01T13:16:45;24.30;37.10
8888;DHT22;4480;52.370;9.748;2022-09-01T13:19:13;24.10;37.40
8888;DHT22;4480;52.370;9.748;2022-09-01T13:21:40;24.20;37.70
8888;DHT22;4480;52.370;9.748;2022-09-01T13:24:07;24.30;37.40
8888;DHT22;4480;52.370;9.748;2022-09-01T13:26:35;24.40;37.30
8888;DHT22;4480;52.370;9.748;2022-09-01T13:29:03;24.40;37.20
8888;DHT22;4480;52.370;9.748;2022-09-01T13:31:30;24.30;37.10
8888;DHT22;4480;52.370;9.748;2022-09-01T13:33:59;24.20;37.30
8888;DHT22;4480;52.370;9.748;2022-09-01T13:36:26;24.20;37.40
8888;DHT22;4480;52.370;9.748;2022-09-01T13:38:53;24.10;37.60
8888;DHT22;4480;52.370;9.748;2022-09-01T13:41:21;23.90;37.70
8888;DHT22;4480;52.370;9.748;2022-09-01T13:43:48;23.70;37.90
8888;DHT22;4480;52.370;9.748;2022-09-01T13:46:15;23.60;37.90
8888;DHT22;4480;52.370;9.748;2022-09-01T13:48:43;23.70;37.70
8888;DHT22;4480;52.370;9.748;2022-09-01T13:51:12;23.80;38.20
8888;DHT22;4480;52.370;9.748;2022-09-01T13:53:39;23.90;37.60
8888;DHT22;4480;52.370;9.748;2022-09-01T13:56:07;24.20;37.40
8888;DHT22;4480;52.370;9.748;2022-09-01T13:58:34;24.60;37.20
8888;DHT22;4480;52.370;9.748;2022-09-01T14:01:01;24.80;36.70
8888;DHT22;4480;52.370;9.748;2022-09-01T14:03:29;24.80;36.70
8888;DHT22;4480;52.370;9.748;2022-09-01T14:05:59;24.70;36.80
8888;DHT22;4480;52.370;9.748;2022-09-01T14:08:28;24.70;36.60
8888;DHT22;4480;52.370;9.748;2022-09-01T14:10:56;24.70;36.30
8888;DHT22;4480;52.370;9.748;2022-09-01T14:13:24;24.50;36.40
8888;DHT22;4480;52.370;9.748;2022-09-01T14:15:52;24.50;36.70
8888;DHT22;4480;52.370;9.748;2022-09-01T14:18:20;24.40;36.60
8888;DHT22;4480;52.370;9.748;2022-09-01T14:20:50;24.40;36.80
8888;DHT22;4480;52.370;9.748;2022-09-01T14:23:18;24.40;36.90
8888;DHT22;4480;52.370;9.748;2022-09-01T14:25:49;24.30;37.00
8888;DHT22;4480;52.370;9.748;2022-09-01T14:28:18;24.20;36.70
8888;DHT22;4480;52.370;9.748;2022-09-01T14:30:45;24.10;36.60
8888;DHT22;4480;52.370;9.748;2022-09-01T14:33:13;24.10;36.60
8888;DHT22;4480;52.370;9.748;2022-09-01T14:35:42;23.90;36.60
8888;DHT22;4480;52.370;9.748;2022-09-01T14:38:10;23.70;36.80
8888;DHT22;4480;52.370;9.748;2022-09-01T14:40:39;23.60;37.10
8888;DHT22;4480;52.370;9.748;2022-09-01T14:43:09;23.60;37.10
8888;DHT22;4480;52.370;9.748;2022-09-01T14:45:39;23.60;37.00
8888;DHT22;4480;52.370;9.748;2022-09-01T14:48:09;23.70;37.00
8888;DHT22;4480;52.370;9.748;2022-09-01T14:50:39;23.70;36.70
8888;DHT22;4480;52.370;9.748;2022-09-01T14:53:07;23.70;36.70
8888;DHT22;4480;52.370;9.748;2022-09-01T14:55:35;23.70;36.50
8888;DHT22;4480;52.370;9.748;2022-09-01T14:58:02;23.70;36.30
8888;DHT22;4480;52.370;9.748;2022-09-01T15:00:31;23.70;36.30
8888;DHT22;4480;52.370;9.748;2022-09-01T15:03:02;23.50;36.40
8888;DHT22;4480;52.370;9.748;2022-09-01T15:05:29;23.30;36.40
8888;DHT22;4480;52.370;9.748;2022-09-01T15:07:56;23.10;36.10
8888;DHT22;4480;52.370;9.748;2022-09-01T15:10:25;22.90;36.30
8888;DHT22;4480;52.370;9.748;2022-09-01T15:12:54;22.80;36.60
8888;DHT22;4480;52.370;9.748;2022-09-01T15:15:23;22.70;36.60
8888;DHT22;4480;52.370;9.748;2022-09-01T15:17:52;22.70;36.60
8888;DHT22;4480;52.370;9.748;2022-09-01T15:20:20;22.80;36.50
8888;DHT22;4480;52.370;9.748;2022-09-01T15:23:05;23.00;36.40
8888;DHT22;4480;52.370;9.748;2022-09-01T15:25:33;23.20;36.20
8888;DHT22;4480;52.370;9.748;2022-09-01T15:28:00;23.40;36.20
8888;DHT22;4480;52.370;9.748;2022-09-01T15:30:28;23.60;36.10
8888;DHT22;4480;52.370;9.748;2022-09-01T15:32:57;23.70;35.80
8888;DHT22;4480;52.370;9.748;2022-09-01T15:35:27;23.80;36.20
8888;DHT22;4480;52.370;9.748;2022-09-01T15:37:54;23.80;35.30
8888;DHT22;4480;52.370;9.748;2022-09-01T15:40:23;23.90;35.30
8888;DHT22;4480;52.370;9.748;2022-09-01T15:42:51;23.90;35.10
8888;DHT22;4480;52.370;9.748;2022-09-01T15:45:21;23.80;35.00
8888;DHT22;4480;52.370;9.748;2022-09-01T15:47:49;23.80;35.00
8888;DHT22;4480;52.370;9.748;2022-09-01T15:50:22;23.80;35.10
8888;DHT22;4480;52.370;9.748;2022-09-01T15:52:52;23.80;35.10
8888;DHT22;4480;52.370;9.748;2022-09-01T15:55:22;23.70;35.00
8888;DHT22;4480;52.370;9.748;2022-09-01T15:57:49;23.60;35.10
8888;DHT22;4480;52.370;9.748;2022-09-01T16:00:17;23.60;35.10
8888;DHT22;4480;52.370;9.748;2022-09-01T16:05:42;23.40;35.20
8888;DHT22;4480;52.370;9.748;2022-09-01T16:08:10;23.30;35.30
8888;DHT22;4480;52.370;9.748;2022-09-01T16:10:39;23.20;35.40
8888;DHT22;4480;52.370;9.748;2022-09-01T16:13:08;23.20;35.40
8888;DHT22;4480;52.370;9.748;2022-09-01T16:15:43;23.20;35.20
8888;DHT22;4480;52.370;9.748;2022-09-01T16:18:21;23.10;35.10
8888;DHT22;4480;52.370;9.748;2022-09-01T16:21:03;23.10;35.40
8888;DHT22;4480;52.370;9.748;2022-09-01T16:23:40;23.00;35.40
8888;DHT22;4480;52.370;9.748;2022-09-01T16:26:08;22.90;35.30
8888;DHT22;4480;52.370;9.748;2022-09-01T16:28:37;22.90;35.20
8888;DHT22;4480;52.370;9.748;2022-09-01T16:31:10;23.00;35.10
8888;DHT22;4480;52.370;9.748;2022-09-01T16:33:38;23.10;34.90
8888;DHT22;4480;52.370;9.748;2022-09-01T16:36:20;23.30;34.40
8888;DHT22;4480;52.370;9.748;2022-09-01T16:38:54;23.50;34.10
8888;DHT22;4480;52.370;9.748;2022-09-01T16:41:37;23.50;33.80
8888;DHT22;4480;52.370;9.748;2022-09-01T16:44:19;23.40;33.70
8888;DHT22;4480;52.370;9.748;2022-09-01T16:46:55;23.40;33.80
8888;DHT22;4480;52.370;9.748;2022-09-01T16:49:31;23.60;33.70
8888;DHT22;4480;52.370;9.748;2022-09-01T16:52:06;24.10;33.20
8888;DHT22;4480;52.370;9.748;2022-09-01T16:54:46;24.90;32.70
8888;DHT22;4480;52.370;9.748;2022-09-01T16:57:25;25.50;31.80
8888;DHT22;4480;52.370;9.748;2022-09-01T16:59:59;26.00;31.00
8888;DHT22;4480;52.370;9.748;2022-09-01T17:02:33;26.30;30.60
8888;DHT22;4480;52.370;9.748;2022-09-01T17:05:14;26.50;30.40
8888;DHT22;4480;52.370;9.748;2022-09-01T17:07:51;26.70;30.20
8888;DHT22;4480;52.370;9.748;2022-09-01T17:10:29;26.90;30.00
8888;DHT22;4480;52.370;9.748;2022-09-01T17:13:05;26.90;30.00
8888;DHT22;4480;52.370;9.748;2022-09-01T17:15:47;26.60;30.00
8888;DHT22;4480;52.370;9.748;2022-09-01T17:18:20;26.40;30.40
8888;DHT22;4480;52.370;9.748;2022-09-01T17:20:54;26.20;30.70
8888;DHT22;4480;52.370;9.748;2022-09-01T17:23:32;26.20;30.90
8888;DHT22;4480;52.370;9.748;2022-09-01T17:26:04;26.00;31.20
8888;DHT22;4480;52.370;9.748;2022-09-01T17:28:36;25.80;31.60
8888;DHT22;4480;52.370;9.748;2022-09-01T17:31:10;25.60;32.00
8888;DHT22;4480;52.370;9.748;2022-09-01T17:33:52;25.30;32.60
8888;DHT22;4480;52.370;9.748;2022-09-01T17:36:32;25.00;33.30
8888;DHT22;4480;52.370;9.748;2022-09-01T17:39:11;24.80;33.90
8888;DHT22;4480;52.370;9.748;2022-09-01T17:41:46;24.50;34.30
8888;DHT22;4480;52.370;9.748;2022-09-01T17:44:25;24.40;34.70
8888;DHT22;4480;52.370;9.748;2022-09-01T17:46:58;24.30;35.00
8888;DHT22;4480;52.370;9.748;2022-09-01T17:49:32;23.80;35.60
8888;DHT22;4480;52.370;9.748;2022-09-01T17:52:11;23.20;36.60
8888;DHT22;4480;52.370;9.748;2022-09-01T17:54:47;22.60;37.60
8888;DHT22;4480;52.370;9.748;2022-09-01T17:57:23;22.10;38.50
8888;DHT22;4480;52.370;9.748;2022-09-01T17:59:56;21.80;39.20
8888;DHT22;4480;52.370;9.748;2022-09-01T18:05:12;21.40;39.80
8888;DHT22;4480;52.370;9.748;2022-09-01T18:08:01;21.00;40.90
8888;DHT22;4480;52.370;9.748;2022-09-01T18:10:39;20.80;41.30
8888;DHT22;4480;52.370;9.748;2022-09-01T18:13:09;20.60;41.70
8888;DHT22;4480;52.370;9.748;2022-09-01T18:15:46;20.50;42.20
8888;DHT22;4480;52.370;9.748;2022-09-01T18:18:25;20.30;42.40
8888;DHT22;4480;52.370;9.748;2022-09-01T18:30:58;20.20;43.10
8888;DHT22;4480;52.370;9.748;2022-09-01T18:33:28;19.70;44.20
8888;DHT22;4480;52.370;9.748;2022-09-01T18:36:07;19.60;44.40
8888;DHT22;4480;52.370;9.748;2022-09-01T18:38:43;19.50;44.80
8888;DHT22;4480;52.370;9.748;2022-09-01T18:41:28;19.40;44.90
8888;DHT22;4480;52.370;9.748;2022-09-01T18:44:03;19.40;45.30
8888;DHT22;4480;52.370;9.748;2022-09-01T18:46:38;19.30;45.50
8888;DHT22;4480;52.370;9.748;2022-09-01T18:49:17;19.20;45.80
8888;DHT22;4480;52.370;9.748;2022-09-01T18:51:57;19.20;46.10
8888;DHT22;4480;52.370;9.748;2022-09-01T18:54:32;19.10;46.20
8888;DHT22;4480;52.370;9.748;2022-09-01T18:57:05;19.00;46.50
8888;DHT22;4480;52.370;9.748;2022-09-01T19:02:23;18.90;46.60
8888;DHT22;4480;52.370;9.748;2022-09-01T19:07:28;18.80;47.10
8888;DHT22;4480;52.370;9.748;2022-09-01T19:10:02;18.70;47.40
8888;DHT22;4480;52.370;9.748;2022-09-01T19:12:37;18.60;47.40